sensor_id;sensor_type;location;lat;lon;timestamp;pressure;altitude;pressure_sealevel;temperature;humidity
74659;BME280;63186;51.204;6.536;2024-03-06T00:02:08;101304.88;;;4.11;100.00
74659;BME280;63186;51.204;6.536;2024-03-06T00:04:34;101311.59;;;4.03;100.00
74659;BME280;63186;51.204;6.536;2024-03-06T00:06:59;101309.00;;;3.91;100.00
74659;BME280;63186;51.204;6.536;2024-03-06T00:09:25;101303.72;;;3.85;100.00
74659;BME280;63186;51.204;6.536;2024-03-06T00:11:54;101311.25;;;3.77;100.00
74659;BME280;63186;51.204;6.536;2024-03-06T00:14:19;101306.81;;;3.71;100.00
74659;BME280;63186;51.204;6.536;2024-03-06T00:16:47;101312.78;;;3.68;100.00
74659;BME280;63186;51.204;6.536;2024-03-06T00:19:13;101312.41;;;3.60;100.00
74659;BME280;63186;51.204;6.536;2024-03-06T00:21:39;101320.41;;;3.49;100.00
74659;BME280;63186;51.204;6.536;2024-03-06T00:24:04;101308.31;;;3.40;100.00
74659;BME280;63186;51.204;6.536;2024-03-06T00:26:30;101311.44;;;3.32;100.00
74659;BME280;63186;51.204;6.536;2024-03-06T00:28:55;101316.66;;;3.34;100.00
74659;BME280;63186;51.204;6.536;2024-03-06T00:31:20;101311.38;;;3.27;100.00
74659;BME280;63186;51.204;6.536;2024-03-06T00:33:46;101321.25;;;3.16;100.00
74659;BME280;63186;51.204;6.536;2024-03-06T00:36:11;101335.03;;;3.10;100.00
74659;BME280;63186;51.204;6.536;2024-03-06T00:38:36;101324.97;;;3.10;100.00
74659;BME280;63186;51.204;6.536;2024-03-06T00:41:02;101327.78;;;3.15;100.00
74659;BME280;63186;51.204;6.536;2024-03-06T00:43:27;101336.78;;;3.16;100.00
74659;BME280;63186;51.204;6.536;2024-03-06T00:45:53;101341.47;;;3.20;100.00
74659;BME280;63186;51.204;6.536;2024-03-06T00:48:18;101338.50;;;3.22;100.00
74659;BME280;63186;51.204;6.536;2024-03-06T00:50:45;101344.75;;;3.22;100.00
74659;BME280;63186;51.204;6.536;2024-03-06T00:53:10;101346.16;;;3.25;100.00
74659;BME280;63186;51.204;6.536;2024-03-06T00:55:36;101346.50;;;3.29;100.00
74659;BME280;63186;51.204;6.536;2024-03-06T00:58:01;101347.50;;;3.39;100.00
74659;BME280;63186;51.204;6.536;2024-03-06T01:00:27;101349.53;;;3.49;100.00
74659;BME280;63186;51.204;6.536;2024-03-06T01:02:52;101354.22;;;3.53;100.00
74659;BME280;63186;51.204;6.536;2024-03-06T01:05:17;101359.16;;;3.57;100.00
74659;BME280;63186;51.204;6.536;2024-03-06T01:07:42;101356.53;;;3.62;100.00
74659;BME280;63186;51.204;6.536;2024-03-06T01:10:08;101356.25;;;3.63;100.00
74659;BME280;63186;51.204;6.536;2024-03-06T01:12:34;101365.50;;;3.62;100.00
74659;BME280;63186;51.204;6.536;2024-03-06T01:15:00;101369.13;;;3.68;100.00
74659;BME280;63186;51.204;6.536;2024-03-06T01:17:25;101364.59;;;3.73;100.00
74659;BME280;63186;51.204;6.536;2024-03-06T01:19:51;101367.63;;;3.77;100.00
74659;BME280;63186;51.204;6.536;2024-03-06T01:22:17;101369.88;;;3.80;100.00
74659;BME280;63186;51.204;6.536;2024-03-06T01:24:42;101365.81;;;3.83;100.00
74659;BME280;63186;51.204;6.536;2024-03-06T01:27:07;101370.16;;;3.84;100.00
74659;BME280;63186;51.204;6.536;2024-03-06T01:29:33;101372.66;;;3.85;100.00
74659;BME280;63186;51.204;6.536;2024-03-06T01:31:58;101372.72;;;3.90;100.00
74659;BME280;63186;51.204;6.536;2024-03-06T01:34:24;101378.50;;;3.94;100.00
74659;BME280;63186;51.204;6.536;2024-03-06T01:36:51;101380.13;;;3.95;100.00
74659;BME280;63186;51.204;6.536;2024-03-06T01:39:16;101384.25;;;3.97;100.00
74659;BME280;63186;51.204;6.536;2024-03-06T01:41:46;101381.03;;;4.00;100.00
74659;BME280;63186;51.204;6.536;2024-03-06T01:44:12;101382.75;;;4.06;100.00
74659;BME280;63186;51.204;6.536;2024-03-06T01:46:37;101371.59;;;4.08;100.00
74659;BME280;63186;51.204;6.536;2024-03-06T01:49:03;101383.13;;;4.15;100.00
74659;BME280;63186;51.204;6.536;2024-03-06T01:51:29;101377.94;;;4.14;100.00
74659;BME280;63186;51.204;6.536;2024-03-06T01:53:55;101372.97;;;4.11;100.00
74659;BME280;63186;51.204;6.536;2024-03-06T01:56:20;101373.50;;;4.07;100.00
74659;BME280;63186;51.204;6.536;2024-03-06T01:58:46;101379.03;;;4.13;100.00
74659;BME280;63186;51.204;6.536;2024-03-06T02:01:12;101377.13;;;4.13;100.00
74659;BME280;63186;51.204;6.536;2024-03-06T02:03:38;101378.38;;;4.05;100.00
74659;BME280;63186;51.204;6.536;2024-03-06T02:06:04;101387.09;;;3.86;100.00
74659;BME280;63186;51.204;6.536;2024-03-06T02:08:30;101382.84;;;3.73;100.00
74659;BME280;63186;51.204;6.536;2024-03-06T02:10:55;101378.88;;;3.64;100.00
74659;BME280;63186;51.204;6.536;2024-03-06T02:13:21;101394.00;;;3.54;100.00
74659;BME280;63186;51.204;6.536;2024-03-06T02:15:46;101397.97;;;3.47;100.00
74659;BME280;63186;51.204;6.536;2024-03-06T02:18:11;101399.59;;;3.31;100.00
74659;BME280;63186;51.204;6.536;2024-03-06T02:20:40;101405.59;;;3.16;100.00
74659;BME280;63186;51.204;6.536;2024-03-06T02:23:06;101401.41;;;3.09;100.00
74659;BME280;63186;51.204;6.536;2024-03-06T02:25:32;101400.97;;;3.00;100.00
74659;BME280;63186;51.204;6.536;2024-03-06T02:27:58;101400.47;;;3.03;100.00
74659;BME280;63186;51.204;6.536;2024-03-06T02:30:24;101406.75;;;3.04;100.00
74659;BME280;63186;51.204;6.536;2024-03-06T02:32:49;101401.06;;;3.05;100.00
74659;BME280;63186;51.204;6.536;2024-03-06T02:35:14;101406.50;;;3.05;100.00
74659;BME280;63186;51.204;6.536;2024-03-06T02:37:43;101401.56;;;3.02;100.00
74659;BME280;63186;51.204;6.536;2024-03-06T02:40:09;101404.28;;;3.02;100.00
74659;BME280;63186;51.204;6.536;2024-03-06T02:42:35;101401.72;;;2.95;100.00
74659;BME280;63186;51.204;6.536;2024-03-06T02:45:07;101396.69;;;2.87;100.00
74659;BME280;63186;51.204;6.536;2024-03-06T02:47:33;101396.16;;;2.90;100.00
74659;BME280;63186;51.204;6.536;2024-03-06T02:49:59;101398.78;;;2.85;100.00
74659;BME280;63186;51.204;6.536;2024-03-06T02:52:24;101395.16;;;2.80;100.00
74659;BME280;63186;51.204;6.536;2024-03-06T02:54:49;101393.19;;;2.75;100.00
74659;BME280;63186;51.204;6.536;2024-03-06T02:57:15;101401.22;;;2.70;100.00
74659;BME280;63186;51.204;6.536;2024-03-06T02:59:40;101402.06;;;2.70;100.00
74659;BME280;63186;51.204;6.536;2024-03-06T03:02:06;101399.72;;;2.62;100.00
74659;BME280;63186;51.204;6.536;2024-03-06T03:04:31;101394.75;;;2.59;100.00
74659;BME280;63186;51.204;6.536;2024-03-06T03:06:57;101397.47;;;2.59;100.00
74659;BME280;63186;51.204;6.536;2024-03-06T03:09:22;101403.66;;;2.55;100.00
74659;BME280;63186;51.204;6.536;2024-03-06T03:11:48;101393.25;;;2.52;100.00
74659;BME280;63186;51.204;6.536;2024-03-06T03:14:13;101401.41;;;2.52;100.00
74659;BME280;63186;51.204;6.536;2024-03-06T03:16:39;101397.63;;;2.53;100.00
74659;BME280;63186;51.204;6.536;2024-03-06T03:19:04;101392.34;;;2.46;100.00
74659;BME280;63186;51.204;6.536;2024-03-06T03:21:30;101396.91;;;2.29;100.00
74659;BME280;63186;51.204;6.536;2024-03-06T03:23:55;101395.28;;;2.16;100.00
74659;BME280;63186;51.204;6.536;2024-03-06T03:26:20;101394.31;;;2.22;100.00
74659;BME280;63186;51.204;6.536;2024-03-06T03:28:46;101393.69;;;2.32;100.00
74659;BME280;63186;51.204;6.536;2024-03-06T03:31:11;101395.22;;;2.28;100.00
74659;BME280;63186;51.204;6.536;2024-03-06T03:33:40;101406.47;;;2.20;100.00
74659;BME280;63186;51.204;6.536;2024-03-06T03:36:06;101407.09;;;2.10;100.00
74659;BME280;63186;51.204;6.536;2024-03-06T03:38:33;101407.22;;;2.03;100.00
74659;BME280;63186;51.204;6.536;2024-03-06T03:41:01;101406.72;;;1.95;100.00
74659;BME280;63186;51.204;6.536;2024-03-06T03:43:26;101414.41;;;1.86;100.00
74659;BME280;63186;51.204;6.536;2024-03-06T03:45:51;101409.59;;;1.76;100.00
74659;BME280;63186;51.204;6.536;2024-03-06T03:48:17;101407.09;;;1.75;100.00
74659;BME280;63186;51.204;6.536;2024-03-06T03:50:42;101418.91;;;1.80;100.00
74659;BME280;63186;51.204;6.536;2024-03-06T03:53:07;101418.09;;;1.80;100.00
74659;BME280;63186;51.204;6.536;2024-03-06T03:55:33;101420.56;;;1.81;100.00
74659;BME280;63186;51.204;6.536;2024-03-06T03:57:58;101424.34;;;1.80;100.00
74659;BME280;63186;51.204;6.536;2024-03-06T04:00:23;101429.06;;;1.85;100.00
74659;BME280;63186;51.204;6.536;2024-03-06T04:02:49;101436.38;;;1.84;100.00
74659;BME280;63186;51.204;6.536;2024-03-06T04:05:14;101442.53;;;1.92;100.00
74659;BME280;63186;51.204;6.536;2024-03-06T04:07:40;101438.16;;;1.90;100.00
74659;BME280;63186;51.204;6.536;2024-03-06T04:10:06;101446.50;;;1.89;100.00
74659;BME280;63186;51.204;6.536;2024-03-06T04:12:31;101445.00;;;1.93;100.00
74659;BME280;63186;51.204;6.536;2024-03-06T04:14:57;101451.84;;;1.96;100.00
74659;BME280;63186;51.204;6.536;2024-03-06T04:17:22;101452.06;;;1.94;100.00
74659;BME280;63186;51.204;6.536;2024-03-06T04:19:48;101459.25;;;1.88;100.00
74659;BME280;63186;51.204;6.536;2024-03-06T04:22:14;101464.13;;;1.86;100.00
74659;BME280;63186;51.204;6.536;2024-03-06T04:24:42;101462.47;;;1.85;100.00
74659;BME280;63186;51.204;6.536;2024-03-06T04:27:08;101462.81;;;1.89;100.00
74659;BME280;63186;51.204;6.536;2024-03-06T04:29:33;101457.03;;;1.85;100.00
74659;BME280;63186;51.204;6.536;2024-03-06T04:31:58;101467.63;;;1.75;100.00
74659;BME280;63186;51.204;6.536;2024-03-06T04:34:24;101468.81;;;1.68;100.00
74659;BME280;63186;51.204;6.536;2024-03-06T04:36:49;101473.19;;;1.57;100.00
74659;BME280;63186;51.204;6.536;2024-03-06T04:39:14;101466.19;;;1.49;100.00
74659;BME280;63186;51.204;6.536;2024-03-06T04:41:40;101476.13;;;1.44;100.00
74659;BME280;63186;51.204;6.536;2024-03-06T04:44:05;101475.38;;;1.36;100.00
74659;BME280;63186;51.204;6.536;2024-03-06T04:46:31;101489.69;;;1.44;100.00
74659;BME280;63186;51.204;6.536;2024-03-06T04:49:14;101485.44;;;1.48;100.00
74659;BME280;63186;51.204;6.536;2024-03-06T04:51:40;101491.72;;;1.60;100.00
74659;BME280;63186;51.204;6.536;2024-03-06T04:54:05;101493.50;;;1.66;100.00
74659;BME280;63186;51.204;6.536;2024-03-06T04:56:30;101492.78;;;1.59;100.00
74659;BME280;63186;51.204;6.536;2024-03-06T04:58:55;101492.06;;;1.52;100.00
74659;BME280;63186;51.204;6.536;2024-03-06T05:01:21;101484.59;;;1.47;100.00
74659;BME280;63186;51.204;6.536;2024-03-06T05:03:46;101490.97;;;1.41;100.00
74659;BME280;63186;51.204;6.536;2024-03-06T05:06:12;101490.22;;;1.34;100.00
74659;BME280;63186;51.204;6.536;2024-03-06T05:08:37;101504.38;;;1.36;100.00
74659;BME280;63186;51.204;6.536;2024-03-06T05:11:03;101505.69;;;1.33;100.00
74659;BME280;63186;51.204;6.536;2024-03-06T05:13:29;101509.47;;;1.32;100.00
74659;BME280;63186;51.204;6.536;2024-03-06T05:15:54;101517.00;;;1.30;100.00
74659;BME280;63186;51.204;6.536;2024-03-06T05:18:20;101518.88;;;1.30;100.00
74659;BME280;63186;51.204;6.536;2024-03-06T05:20:45;101518.66;;;1.31;100.00
74659;BME280;63186;51.204;6.536;2024-03-06T05:23:11;101525.94;;;1.19;100.00
74659;BME280;63186;51.204;6.536;2024-03-06T05:25:37;101518.72;;;1.13;100.00
74659;BME280;63186;51.204;6.536;2024-03-06T05:28:03;101523.97;;;1.08;100.00
74659;BME280;63186;51.204;6.536;2024-03-06T05:30:29;101524.94;;;1.14;100.00
74659;BME280;63186;51.204;6.536;2024-03-06T05:32:55;101526.75;;;1.20;100.00
74659;BME280;63186;51.204;6.536;2024-03-06T05:35:20;101527.72;;;1.25;100.00
74659;BME280;63186;51.204;6.536;2024-03-06T05:37:46;101529.63;;;1.36;100.00
74659;BME280;63186;51.204;6.536;2024-03-06T05:40:11;101530.94;;;1.34;100.00
74659;BME280;63186;51.204;6.536;2024-03-06T05:42:37;101538.63;;;1.37;100.00
74659;BME280;63186;51.204;6.536;2024-03-06T05:45:02;101543.56;;;1.40;100.00
74659;BME280;63186;51.204;6.536;2024-03-06T05:47:35;101534.00;;;1.38;100.00
74659;BME280;63186;51.204;6.536;2024-03-06T05:50:00;101545.47;;;1.40;100.00
74659;BME280;63186;51.204;6.536;2024-03-06T05:52:30;101546.38;;;1.33;100.00
74659;BME280;63186;51.204;6.536;2024-03-06T05:54:55;101547.53;;;1.26;100.00
74659;BME280;63186;51.204;6.536;2024-03-06T05:57:20;101555.59;;;1.14;100.00
74659;BME280;63186;51.204;6.536;2024-03-06T05:59:46;101553.56;;;1.09;100.00
74659;BME280;63186;51.204;6.536;2024-03-06T06:02:11;101560.06;;;1.08;100.00
74659;BME280;63186;51.204;6.536;2024-03-06T06:04:36;101568.28;;;1.02;100.00
74659;BME280;63186;51.204;6.536;2024-03-06T06:07:01;101559.31;;;1.01;100.00
74659;BME280;63186;51.204;6.536;2024-03-06T06:09:28;101561.34;;;1.06;100.00
74659;BME280;63186;51.204;6.536;2024-03-06T06:11:53;101560.28;;;1.07;100.00
74659;BME280;63186;51.204;6.536;2024-03-06T06:14:19;101572.63;;;1.03;100.00
74659;BME280;63186;51.204;6.536;2024-03-06T06:16:44;101573.78;;;0.95;100.00
74659;BME280;63186;51.204;6.536;2024-03-06T06:19:10;101572.38;;;0.93;100.00
74659;BME280;63186;51.204;6.536;2024-03-06T06:21:36;101588.47;;;0.88;100.00
74659;BME280;63186;51.204;6.536;2024-03-06T06:24:03;101582.22;;;0.87;100.00
74659;BME280;63186;51.204;6.536;2024-03-06T06:26:29;101591.41;;;0.86;100.00
74659;BME280;63186;51.204;6.536;2024-03-06T06:28:54;101590.34;;;0.87;100.00
74659;BME280;63186;51.204;6.536;2024-03-06T06:31:20;101599.25;;;0.94;100.00
74659;BME280;63186;51.204;6.536;2024-03-06T06:33:45;101602.47;;;1.03;100.00
74659;BME280;63186;51.204;6.536;2024-03-06T06:36:12;101603.09;;;1.05;100.00
74659;BME280;63186;51.204;6.536;2024-03-06T06:38:37;101606.75;;;1.11;100.00
74659;BME280;63186;51.204;6.536;2024-03-06T06:41:03;101627.34;;;1.18;100.00
74659;BME280;63186;51.204;6.536;2024-03-06T06:43:28;101615.50;;;1.31;100.00
74659;BME280;63186;51.204;6.536;2024-03-06T06:45:53;101621.69;;;1.50;100.00
74659;BME280;63186;51.204;6.536;2024-03-06T06:48:19;101631.44;;;1.69;100.00
74659;BME280;63186;51.204;6.536;2024-03-06T06:50:44;101630.22;;;1.83;100.00
74659;BME280;63186;51.204;6.536;2024-03-06T06:53:12;101639.09;;;1.90;100.00
74659;BME280;63186;51.204;6.536;2024-03-06T06:55:37;101639.31;;;2.01;100.00
74659;BME280;63186;51.204;6.536;2024-03-06T06:58:03;101643.38;;;2.10;100.00
74659;BME280;63186;51.204;6.536;2024-03-06T07:00:28;101640.00;;;2.38;100.00
74659;BME280;63186;51.204;6.536;2024-03-06T07:02:55;101636.47;;;2.61;100.00
74659;BME280;63186;51.204;6.536;2024-03-06T07:05:24;101648.03;;;2.80;100.00
74659;BME280;63186;51.204;6.536;2024-03-06T07:07:49;101647.63;;;3.11;100.00
74659;BME280;63186;51.204;6.536;2024-03-06T07:10:14;101649.63;;;4.13;100.00
74659;BME280;63186;51.204;6.536;2024-03-06T07:12:40;101658.13;;;5.06;100.00
74659;BME280;63186;51.204;6.536;2024-03-06T07:15:05;101659.94;;;5.39;100.00
74659;BME280;63186;51.204;6.536;2024-03-06T07:17:31;101664.25;;;5.84;100.00
74659;BME280;63186;51.204;6.536;2024-03-06T07:19:57;101667.41;;;6.19;100.00
74659;BME280;63186;51.204;6.536;2024-03-06T07:22:22;101666.47;;;6.73;100.00
74659;BME280;63186;51.204;6.536;2024-03-06T07:24:48;101677.81;;;7.44;100.00
74659;BME280;63186;51.204;6.536;2024-03-06T07:27:13;101682.41;;;8.22;100.00
74659;BME280;63186;51.204;6.536;2024-03-06T07:29:38;101681.03;;;9.01;100.00
74659;BME280;63186;51.204;6.536;2024-03-06T07:32:04;101683.09;;;9.44;100.00
74659;BME280;63186;51.204;6.536;2024-03-06T07:34:32;101679.94;;;9.71;100.00
74659;BME280;63186;51.204;6.536;2024-03-06T07:36:58;101682.31;;;9.93;100.00
74659;BME280;63186;51.204;6.536;2024-03-06T07:39:24;101693.84;;;9.95;100.00
74659;BME280;63186;51.204;6.536;2024-03-06T07:41:50;101698.28;;;9.91;100.00
74659;BME280;63186;51.204;6.536;2024-03-06T07:44:15;101706.16;;;9.54;100.00
74659;BME280;63186;51.204;6.536;2024-03-06T07:46:41;101702.47;;;9.78;100.00
74659;BME280;63186;51.204;6.536;2024-03-06T07:49:06;101702.66;;;10.42;100.00
74659;BME280;63186;51.204;6.536;2024-03-06T07:51:33;101706.06;;;11.45;100.00
74659;BME280;63186;51.204;6.536;2024-03-06T07:53:59;101709.47;;;11.36;97.88
74659;BME280;63186;51.204;6.536;2024-03-06T07:56:25;101718.00;;;10.82;97.83
74659;BME280;63186;51.204;6.536;2024-03-06T07:58:51;101719.19;;;11.05;100.00
74659;BME280;63186;51.204;6.536;2024-03-06T08:01:16;101726.00;;;11.60;99.01
74659;BME280;63186;51.204;6.536;2024-03-06T08:03:42;101725.13;;;11.89;96.27
74659;BME280;63186;51.204;6.536;2024-03-06T08:06:08;101732.31;;;12.28;95.41
74659;BME280;63186;51.204;6.536;2024-03-06T08:08:34;101729.31;;;12.62;92.86
74659;BME280;63186;51.204;6.536;2024-03-06T08:11:00;101731.88;;;13.37;89.72
74659;BME280;63186;51.204;6.536;2024-03-06T08:13:25;101733.75;;;13.69;85.60
74659;BME280;63186;51.204;6.536;2024-03-06T08:15:51;101739.75;;;13.99;84.94
74659;BME280;63186;51.204;6.536;2024-03-06T08:18:16;101741.59;;;13.48;84.77
74659;BME280;63186;51.204;6.536;2024-03-06T08:20:41;101740.84;;;12.83;84.15
74659;BME280;63186;51.204;6.536;2024-03-06T08:23:07;101747.31;;;12.21;87.79
74659;BME280;63186;51.204;6.536;2024-03-06T08:25:33;101746.66;;;10.81;87.72
74659;BME280;63186;51.204;6.536;2024-03-06T08:27:58;101746.06;;;9.41;100.00
74659;BME280;63186;51.204;6.536;2024-03-06T08:30:24;101748.91;;;9.85;100.00
74659;BME280;63186;51.204;6.536;2024-03-06T08:32:50;101734.78;;;9.32;100.00
74659;BME280;63186;51.204;6.536;2024-03-06T08:35:16;101743.09;;;8.96;100.00
74659;BME280;63186;51.204;6.536;2024-03-06T08:37:43;101752.69;;;8.99;100.00
74659;BME280;63186;51.204;6.536;2024-03-06T08:40:10;101751.06;;;8.57;100.00
74659;BME280;63186;51.204;6.536;2024-03-06T08:42:42;101755.94;;;8.30;100.00
74659;BME280;63186;51.204;6.536;2024-03-06T08:45:08;101759.19;;;8.11;100.00
74659;BME280;63186;51.204;6.536;2024-03-06T08:47:34;101759.38;;;7.95;100.00
74659;BME280;63186;51.204;6.536;2024-03-06T08:49:59;101761.09;;;8.06;100.00
74659;BME280;63186;51.204;6.536;2024-03-06T08:52:24;101759.16;;;8.06;100.00
74659;BME280;63186;51.204;6.536;2024-03-06T08:54:50;101760.53;;;8.04;100.00
74659;BME280;63186;51.204;6.536;2024-03-06T08:57:15;101762.44;;;8.08;100.00
74659;BME280;63186;51.204;6.536;2024-03-06T08:59:41;101771.34;;;8.41;100.00
74659;BME280;63186;51.204;6.536;2024-03-06T09:02:15;101765.06;;;8.51;100.00
74659;BME280;63186;51.204;6.536;2024-03-06T09:04:42;101775.22;;;8.65;100.00
74659;BME280;63186;51.204;6.536;2024-03-06T09:07:08;101772.22;;;8.87;100.00
74659;BME280;63186;51.204;6.536;2024-03-06T09:09:34;101768.91;;;9.21;100.00
74659;BME280;63186;51.204;6.536;2024-03-06T09:12:03;101769.66;;;9.47;100.00
74659;BME280;63186;51.204;6.536;2024-03-06T09:14:31;101774.19;;;9.92;100.00
74659;BME280;63186;51.204;6.536;2024-03-06T09:16:57;101784.03;;;10.03;100.00
74659;BME280;63186;51.204;6.536;2024-03-06T09:19:22;101782.81;;;11.61;95.14
74659;BME280;63186;51.204;6.536;2024-03-06T09:21:48;101783.06;;;13.21;85.11
74659;BME280;63186;51.204;6.536;2024-03-06T09:24:13;101788.50;;;14.36;79.37
74659;BME280;63186;51.204;6.536;2024-03-06T09:26:39;101778.41;;;14.99;74.70
74659;BME280;63186;51.204;6.536;2024-03-06T09:29:04;101793.97;;;15.31;73.63
74659;BME280;63186;51.204;6.536;2024-03-06T09:31:30;101790.00;;;15.54;71.79
74659;BME280;63186;51.204;6.536;2024-03-06T09:33:55;101799.44;;;15.84;69.58
74659;BME280;63186;51.204;6.536;2024-03-06T09:36:20;101796.81;;;15.39;70.73
74659;BME280;63186;51.204;6.536;2024-03-06T09:38:46;101807.38;;;15.37;70.86
74659;BME280;63186;51.204;6.536;2024-03-06T09:41:11;101809.69;;;16.15;69.22
74659;BME280;63186;51.204;6.536;2024-03-06T09:43:37;101811.09;;;16.78;66.15
74659;BME280;63186;51.204;6.536;2024-03-06T09:46:02;101806.41;;;16.13;66.67
74659;BME280;63186;51.204;6.536;2024-03-06T09:48:29;101813.31;;;15.76;67.72
74659;BME280;63186;51.204;6.536;2024-03-06T09:50:57;101816.06;;;16.15;67.05
74659;BME280;63186;51.204;6.536;2024-03-06T09:53:26;101813.22;;;16.72;64.91
74659;BME280;63186;51.204;6.536;2024-03-06T09:55:51;101818.44;;;17.00;63.78
74659;BME280;63186;51.204;6.536;2024-03-06T09:58:17;101826.31;;;16.80;64.17
74659;BME280;63186;51.204;6.536;2024-03-06T10:00:42;101822.56;;;16.76;64.15
74659;BME280;63186;51.204;6.536;2024-03-06T10:03:09;101823.16;;;16.56;63.64
74659;BME280;63186;51.204;6.536;2024-03-06T10:05:36;101830.59;;;15.41;61.93
74659;BME280;63186;51.204;6.536;2024-03-06T10:08:02;101824.44;;;15.84;66.13
74659;BME280;63186;51.204;6.536;2024-03-06T10:10:29;101829.19;;;16.41;63.91
74659;BME280;63186;51.204;6.536;2024-03-06T10:12:54;101829.28;;;15.70;64.52
74659;BME280;63186;51.204;6.536;2024-03-06T10:15:22;101830.69;;;15.59;65.28
74659;BME280;63186;51.204;6.536;2024-03-06T10:17:47;101831.44;;;15.73;65.25
74659;BME280;63186;51.204;6.536;2024-03-06T10:20:18;101824.97;;;15.86;61.22
74659;BME280;63186;51.204;6.536;2024-03-06T10:22:49;101835.63;;;15.62;64.03
74659;BME280;63186;51.204;6.536;2024-03-06T10:25:14;101824.59;;;15.79;62.75
74659;BME280;63186;51.204;6.536;2024-03-06T10:27:40;101831.66;;;15.32;64.25
74659;BME280;63186;51.204;6.536;2024-03-06T10:30:06;101842.75;;;14.51;69.15
74659;BME280;63186;51.204;6.536;2024-03-06T10:32:36;101844.78;;;14.59;69.61
74659;BME280;63186;51.204;6.536;2024-03-06T10:35:01;101844.72;;;14.50;69.46
74659;BME280;63186;51.204;6.536;2024-03-06T10:37:28;101846.78;;;14.17;70.40
74659;BME280;63186;51.204;6.536;2024-03-06T10:39:54;101852.81;;;13.64;71.55
74659;BME280;63186;51.204;6.536;2024-03-06T10:42:24;101839.03;;;12.94;75.20
74659;BME280;63186;51.204;6.536;2024-03-06T10:44:52;101843.34;;;13.19;76.30
74659;BME280;63186;51.204;6.536;2024-03-06T10:47:23;101840.31;;;13.20;76.35
74659;BME280;63186;51.204;6.536;2024-03-06T10:49:51;101838.41;;;13.16;77.70
74659;BME280;63186;51.204;6.536;2024-03-06T10:52:19;101843.00;;;12.88;78.99
74659;BME280;63186;51.204;6.536;2024-03-06T10:54:46;101844.28;;;12.76;80.36
74659;BME280;63186;51.204;6.536;2024-03-06T10:57:14;101849.28;;;12.56;81.18
74659;BME280;63186;51.204;6.536;2024-03-06T10:59:40;101843.91;;;12.64;80.90
74659;BME280;63186;51.204;6.536;2024-03-06T11:02:08;101839.84;;;12.38;82.13
74659;BME280;63186;51.204;6.536;2024-03-06T11:04:35;101845.06;;;11.97;84.27
74659;BME280;63186;51.204;6.536;2024-03-06T11:07:04;101842.09;;;11.64;86.03
74659;BME280;63186;51.204;6.536;2024-03-06T11:09:36;101842.38;;;11.62;83.39
74659;BME280;63186;51.204;6.536;2024-03-06T11:12:06;101848.84;;;11.77;85.50
74659;BME280;63186;51.204;6.536;2024-03-06T11:14:38;101852.63;;;12.10;87.71
74659;BME280;63186;51.204;6.536;2024-03-06T11:17:06;101856.50;;;12.33;84.56
74659;BME280;63186;51.204;6.536;2024-03-06T11:28:20;101845.69;;;12.12;84.26
74659;BME280;63186;51.204;6.536;2024-03-06T11:30:46;101850.53;;;12.02;85.36
74659;BME280;63186;51.204;6.536;2024-03-06T11:33:14;101857.75;;;11.98;85.75
74659;BME280;63186;51.204;6.536;2024-03-06T11:36:12;101851.66;;;11.72;86.31
74659;BME280;63186;51.204;6.536;2024-03-06T11:38:29;101857.28;;;11.61;86.65
74659;BME280;63186;51.204;6.536;2024-03-06T11:40:54;101856.00;;;11.78;85.46
74659;BME280;63186;51.204;6.536;2024-03-06T11:43:24;101858.50;;;12.03;83.62
74659;BME280;63186;51.204;6.536;2024-03-06T11:45:50;101847.41;;;12.08;84.10
74659;BME280;63186;51.204;6.536;2024-03-06T11:48:15;101850.13;;;12.13;84.56
74659;BME280;63186;51.204;6.536;2024-03-06T11:50:44;101856.56;;;12.28;81.61
74659;BME280;63186;51.204;6.536;2024-03-06T11:53:10;101851.03;;;12.28;82.05
74659;BME280;63186;51.204;6.536;2024-03-06T11:55:36;101851.66;;;12.43;82.25
74659;BME280;63186;51.204;6.536;2024-03-06T11:58:01;101857.47;;;12.42;79.52
74659;BME280;63186;51.204;6.536;2024-03-06T12:00:30;101859.22;;;12.14;76.43
74659;BME280;63186;51.204;6.536;2024-03-06T12:02:55;101852.53;;;11.96;79.64
74659;BME280;63186;51.204;6.536;2024-03-06T12:05:22;101848.56;;;11.78;75.69
74659;BME280;63186;51.204;6.536;2024-03-06T12:07:52;101846.41;;;11.75;75.14
74659;BME280;63186;51.204;6.536;2024-03-06T12:10:17;101849.09;;;11.80;77.64
74659;BME280;63186;51.204;6.536;2024-03-06T12:12:44;101857.34;;;12.09;77.49
74659;BME280;63186;51.204;6.536;2024-03-06T12:15:10;101852.59;;;11.91;76.54
74659;BME280;63186;51.204;6.536;2024-03-06T12:17:47;101852.88;;;11.60;78.01
74659;BME280;63186;51.204;6.536;2024-03-06T12:20:14;101850.88;;;11.66;80.77
74659;BME280;63186;51.204;6.536;2024-03-06T12:22:48;101856.69;;;11.64;79.31
74659;BME280;63186;51.204;6.536;2024-03-06T12:25:39;101855.88;;;11.64;77.11
74659;BME280;63186;51.204;6.536;2024-03-06T12:28:07;101854.53;;;11.90;80.18
74659;BME280;63186;51.204;6.536;2024-03-06T12:30:42;101851.09;;;11.99;79.72
74659;BME280;63186;51.204;6.536;2024-03-06T12:33:09;101850.69;;;11.86;78.50
74659;BME280;63186;51.204;6.536;2024-03-06T12:35:41;101849.94;;;11.81;81.07
74659;BME280;63186;51.204;6.536;2024-03-06T12:38:16;101856.28;;;11.81;77.37
74659;BME280;63186;51.204;6.536;2024-03-06T12:40:42;101851.00;;;11.80;78.42
74659;BME280;63186;51.204;6.536;2024-03-06T12:43:07;101848.78;;;11.87;79.45
74659;BME280;63186;51.204;6.536;2024-03-06T12:45:34;101852.94;;;12.08;77.70
74659;BME280;63186;51.204;6.536;2024-03-06T12:47:59;101851.72;;;12.19;77.03
74659;BME280;63186;51.204;6.536;2024-03-06T12:50:25;101849.88;;;12.10;78.48
74659;BME280;63186;51.204;6.536;2024-03-06T12:52:50;101852.75;;;12.23;78.06
74659;BME280;63186;51.204;6.536;2024-03-06T12:55:17;101844.47;;;12.23;75.73